Apple Valley, Minnesota
Current Conditions -  °F | °C
As of 1:48 PM on Thursday 30 Oct 2014 (Local Time) from KLVN Reporting Station
Overcast Overcast  
Wind Chill: 42°   Ceiling: 4200
Heat Index: 45°   Visibility: 10mi
Dew Point: 36°   Wind: 5mph
Humidity: 71%   Direction: 360°N
Pressure: 30.09"   Gusts: NA
Location:  44.74°N, 93.22°W
Report Text: KLVN 301848Z AUTO 36004KT 10SM OVC042 07/02 A3009 RMK AO2
Loading
Personal Weather Stations






























Interactive Weather Map
Tropical Storm Tracking
New forecast layout! Learn more

10-Day Weather Forecast

Advertisements
Track Severe Weather on mobile